Overview Statistics Trail Chart Weather Telemetry Raw packets
 

This is the latest recevied weather packets stored in our database for station/object DM8MH-13. If no packets are shown the sender has not sent any weather packets the latest 10 day(s).

<< 8 9 10 11 12 13 14 >>
Time Temp. Humidity Pressure Rain* Wind** Luminosity Snow
1788552071 17.78° C 87% 1011.5 hPa 1.27 mm - 0 W/m² -
1788551471 18.33° C 87% 1011.3 hPa 1.27 mm - 0 W/m² -
1788550871 18.33° C 87% 1011.3 hPa 1.27 mm - 0 W/m² -
1788550272 18.33° C 87% 1011 hPa 1.02 mm - 0 W/m² -
1788549672 18.33° C 87% 1010.9 hPa 1.27 mm - 0 W/m² -
1788549071 18.33° C 86% 1010.6 hPa 1.27 mm - 0 W/m² -
1788548471 18.33° C 87% 1010.4 hPa 1.27 mm - 0 W/m² -
1788547871 18.33° C 87% 1010.2 hPa 1.02 mm - 0 W/m² -
1788547271 18.89° C 85% 1010 hPa 0.51 mm - 0 W/m² -
1788546670 18.89° C 85% 1010 hPa 0.51 mm - 0 W/m² -
1788546072 19.44° C 84% 1010.3 hPa 0.25 mm - 0 W/m² -
1788545471 20° C 81% 1010.2 hPa 0 mm - 0 W/m² -
1788544871 20.56° C 77% 1010.1 hPa 0 mm - 0 W/m² -
1788544271 22.78° C 70% 1009.7 hPa 0 mm - 0 W/m² -
1788543670 26.11° C 60% 1008.9 hPa 0 mm - 0 W/m² -
1788543072 26.11° C 58% 1008.4 hPa 0 mm - 0 W/m² -
1788542472 26.67° C 59% 1008.2 hPa 0 mm - 0 W/m² -
1788541871 26.67° C 58% 1008.1 hPa 0 mm - 9 W/m² -
1788541271 26.67° C 59% 1008.1 hPa 0 mm - 20 W/m² -
1788540671 26.67° C 60% 1008.2 hPa 0 mm - 47 W/m² -
1788540070 26.67° C 62% 1008.1 hPa 0 mm - 57 W/m² -
1788539470 26.67° C 61% 1008.1 hPa 0 mm - 49 W/m² -
1788538871 27.22° C 60% 1008.1 hPa 0 mm - 67 W/m² -
1788538271 27.22° C 59% 1008.2 hPa 0 mm - 120 W/m² -
1788537671 27.22° C 58% 1008.2 hPa 0 mm - 305 W/m² -

* Rain latest hour (hover to see other rain measurements)
** Current wind speed in m/s (hover to see current wind gust speed)